Penfield, NY (14526)

9:49 AM EDT on October 22, 2014 (GMT -0400)
Country Club East | Change Station
CLOSE
Current Station
Personal Weather Station
Location: New York, NY
Elevation: 512 ft
Nearby Weather Stations

Elev 512 ft 43.15 °N, 77.44 °W | Updated 1 minute ago

Overcast
Overcast
46.6 °F
Feels Like 45 °F
N
4.0
Wind Variable Wind from NNE
Gusts 20.0 mph

Today
High -- | Low -- °F
--% Chance of Precip.
Yesterday
High -- | Low -- °F
Precip. -- in
7:31 AM 6:15 PM
Waning Crescent, 2% visible
Pressure 30.21 in
Visibility 10.0 miles
Clouds Mostly Cloudy 1600 ft
Overcast 2800 ft
Windchill 45 °F
Dew Point 43 °F
Humidity 86%
Rainfall 0.00 in
Snow Depth Not available.
UV 0 out of 12
Pollen .10 out of 12
Air Quality Not available.
Flu Activity Not available.
METAR KROC 221254Z 02014KT 10SM BKN016 OVC028 09/05 A3019 RMK AO2 SLP228 T00890050

More Conditions Fewer Conditions

Pressure 30.21 in
Visibility 10.0 miles
Clouds Mostly Cloudy 1600 ft
Overcast 2800 ft
Windchill 45 °F
Dew Point 43 °F
Humidity 86%
Rainfall 0.00 in
Snow Depth Not available.
UV 0 out of 12
Pollen .10 out of 12
Air Quality Not available.
Flu Activity Not available.
METAR KROC 221254Z 02014KT 10SM BKN016 OVC028 09/05 A3019 RMK AO2 SLP228 T00890050

More Conditions Fewer Conditions

10-Day Weather Forecast

Almanac

Astronomy

Oct. 22, 2014 Rise Set
Actual Time 7:31 AM EDT 6:15 PM EDT
Civil Twilight 7:02 AM EDT 6:44 PM EDT
Nautical Twilight 6:29 AM EDT 7:17 PM EDT
Astronomical Twilight 5:56 AM EDT 7:50 PM EDT
Moon 6:09 AM EDT 5:42 PM EDT
Length of Visible Light 11h 41m
Length of Day
10h 43m
Tomorrow will be 2m 45s shorter.
Waning Crescent, 2% of the Moon is Illuminated
Today
Waning Crescent
Oct 23
New
Oct 30
First Quarter
Nov 6
Full
Nov 14
Last Quarter

Today's Extremes

State Highs State Lows

Community

WunderPhotos

Upload Photos

1,763,919 photos uploaded!

Nearby

Snow Depth

Station Depth Elevation
No new snow has been reported.

Earthquake Activity

City Distance Mag. Time & Date
No recent earthquake activity has been reported nearby.
Minimum magnitude displayed is 2.5.

Coastal Water Temperatures

Place Temperature
Buffalo, NY 57.0 °F
Alexandria Bay, NY 57.9 °F

Nearby Weather Stations